Latest Weather Observations for Larapuna (Eddystone Point)

IDT60801

Issued at 12:02 pm EST Thursday 24 May 2018 (issued every 10 minutes, with the page automatically refreshed every 10 minutes)

About weather observations | Map of weather stations | Latest weather observations for TAS | Other Formats
Station Details ID: 092045 Name: LARAPUNA (EDDYSTONE POINT) Lat: -40.99 Lon: 148.35 Height: 19.7 m
Data from the previous 72 hours. | See also: Recent months at Larapuna (Eddystone Point)
Date/Time
EST
Temp
°C
App
Temp
°C
Dew
Point
°C
Rel
Hum
%
Delta-T
°C
Wind Press
QNH
hPa
Press
MSL
hPa
Rain since
9am
mm
Dir  Spd
km/h
Gust
km/h
Spd
kts
Gust
kts
24/12:00pm 14.9 12.6 4.9 51 4.7 WSW 6 9 3 5 1022.8 1022.8 0.0
24/11:30am 14.5 12.1 5.3 54 4.3 N 7 9 4 5 1023.0 1023.0 0.0
24/11:00am 14.4 11.8 6.0 57 4.0 NNW 9 11 5 6 1023.0 1023.0 0.0
24/10:30am 13.6 10.3 4.7 55 4.1 NNW 11 15 6 8 1022.7 1022.7 0.0
24/10:00am 13.2 10.5 3.6 52 4.3 NNW 7 9 4 5 1022.7 1022.7 0.0
24/09:30am 12.7 11.3 3.6 54 4.1 CALM 0 7 0 4 1022.5 1022.5 0.0
24/09:00am 11.4 9.5 5.1 65 2.9 NNW 4 7 2 4 1022.4 1022.4 0.0
24/08:30am 10.0 7.5 5.0 71 2.3 N 7 9 4 5 1022.2 1022.2 0.0
24/08:00am 8.3 5.4 4.5 77 1.7 SSW 9 9 5 5 1022.0 1022.0 0.0
24/07:30am 7.3 3.6 2.6 72 2.0 WSW 11 15 6 8 1021.8 1021.8 0.0
24/07:00am 6.9 4.1 3.0 76 1.6 WSW 7 9 4 5 1021.3 1021.3 0.0
24/06:30am 7.0 3.4 2.9 75 1.7 NNW 11 13 6 7 1020.8 1020.8 0.0
24/06:00am 7.7 3.7 3.0 72 2.0 NNW 13 17 7 9 1020.5 1020.5 0.0
24/05:30am 8.3 4.9 2.1 65 2.6 WNW 9 11 5 6 1020.3 1020.3 0.0
24/05:00am 9.1 7.8 3.9 70 2.3 CALM 0 0 0 0 1019.9 1019.9 0.0
24/04:30am 8.8 5.9 2.8 66 2.5 N 7 9 4 5 1019.7 1019.7 0.0
24/04:00am 8.7 5.2 3.5 70 2.2 WSW 11 15 6 8 1019.6 1019.6 0.0
24/03:30am 8.6 5.2 3.8 72 2.1 WSW 11 17 6 9 1019.6 1019.6 0.0
24/03:00am 9.9 4.7 5.3 73 2.1 SW 22 28 12 15 1019.4 1019.4 0.0
24/02:30am 9.8 3.2 4.4 69 2.4 NW 28 35 15 19 1019.0 1019.0 0.0
24/02:00am 10.0 3.5 4.6 69 2.4 WNW 28 35 15 19 1018.7 1018.7 0.0
24/01:30am 10.0 3.5 4.8 70 2.3 NW 28 37 15 20 1018.9 1018.9 0.0
24/01:00am 10.0 3.6 5.0 71 2.2 W 28 35 15 19 1018.9 1018.9 0.0
24/12:30am 10.2 3.8 5.4 72 2.2 NW 28 37 15 20 1019.0 1019.0 0.0
24/12:00am 10.5 3.7 5.3 70 2.4 WNW 30 39 16 21 1019.4 1019.4 0.0
 
Date/Time
EST
Temp
°C
App
Temp
°C
Dew
Point
°C
Rel
Hum
%
Delta-T
°C
Wind Press
QNH
hPa
Press
MSL
hPa
Rain since
9am
mm
Dir  Spd
km/h
Gust
km/h
Spd
kts
Gust
kts
23/11:30pm 11.0 4.6 5.3 68 2.6 NW 28 35 15 19 1019.3 1019.3 0.0
23/11:00pm 11.1 5.1 5.2 67 2.7 W 26 35 14 19 1019.5 1019.5 0.0
23/10:30pm 11.1 5.0 5.0 66 2.8 W 26 39 14 21 1019.7 1019.7 0.0
23/10:00pm 11.6 4.4 5.0 64 3.0 W 32 43 17 23 1019.6 1019.6 0.0
23/09:30pm 11.4 4.6 5.1 65 2.9 W 30 41 16 22 1019.3 1019.3 0.0
23/09:00pm 11.5 5.1 5.4 66 2.8 W 28 39 15 21 1019.2 1019.2 0.0
23/08:30pm 11.6 4.9 5.5 66 2.8 W 30 37 16 20 1018.9 1018.9 0.0
23/08:00pm 11.9 6.8 6.0 67 2.8 WNW 22 32 12 17 1018.5 1018.5 0.0
23/07:30pm 12.4 5.8 6.0 65 3.0 W 30 37 16 20 1018.0 1018.0 0.0
23/07:00pm 12.3 7.0 6.6 68 2.7 WNW 24 32 13 17 1018.0 1018.0 0.0
23/06:30pm 12.6 7.0 7.1 69 2.7 W 26 35 14 19 1017.6 1017.6 0.0
23/06:00pm 12.8 8.5 7.7 71 2.5 NNW 20 30 11 16 1017.2 1017.2 0.0
23/05:30pm 13.1 8.0 7.5 69 2.7 NW 24 30 13 16 1017.3 1017.3 0.0
23/05:00pm 13.7 9.4 7.7 67 3.0 NNW 20 26 11 14 1017.4 1017.4 0.0
23/04:30pm 15.0 10.2 7.5 61 3.7 WNW 22 32 12 17 1017.3 1017.3 0.0
23/04:00pm 16.0 12.4 8.2 60 3.9 NNW 17 22 9 12 1017.0 1017.0 0.0
23/03:30pm 15.3 12.0 8.1 62 3.6 WNW 15 22 8 12 1016.7 1016.7 0.0
23/03:00pm 16.3 12.3 8.3 59 4.1 WNW 19 30 10 16 1016.5 1016.5 0.0
23/02:30pm 16.8 11.1 8.5 58 4.2 NW 28 39 15 21 1016.1 1016.1 0.0
23/02:00pm 16.7 9.2 7.9 56 4.4 NW 37 46 20 25 1015.7 1015.7 0.0
23/01:30pm 15.7 9.9 8.0 60 3.9 NW 28 43 15 23 1015.9 1015.9 0.0
23/01:00pm 15.7 9.2 8.2 61 3.8 WNW 32 52 17 28 1015.9 1015.9 0.0
23/12:59pm 15.7 9.0 8.0 60 3.9 WNW 33 52 18 28 1015.9 1015.9 0.0
23/12:30pm 16.2 9.6 8.4 60 4.0 NW 33 50 18 27 1015.9 1015.9 0.0
23/12:26pm 16.5 10.1 8.5 59 4.1 WNW 32 50 17 27 1016.0 1016.0 0.0
23/12:06pm 16.3 9.4 8.8 61 3.8 NNW 35 50 19 27 1016.2 1016.2 0.0
23/12:00pm 16.0 9.6 8.7 62 3.7 NNW 32 43 17 23 1016.4 1016.4 0.0
23/11:30am 15.2 9.0 9.3 68 3.0 NNW 32 46 17 25 1016.8 1016.8 0.0
23/11:06am 14.6 8.3 8.8 68 2.9 NNW 32 52 17 28 1017.0 1017.0 0.0
23/11:00am 15.1 9.9 9.0 67 3.1 NNW 26 39 14 21 1017.4 1017.4 0.0
23/10:30am 14.9 10.2 9.3 69 2.9 NNW 24 35 13 19 1018.1 1018.1 0.0
23/10:00am 14.0 9.7 9.2 73 2.4 NNW 22 32 12 17 1018.3 1018.3 0.0
23/09:30am 12.7 7.2 9.0 78 1.9 NNW 28 39 15 21 1018.4 1018.4 0.0
23/09:00am 11.9 7.1 8.7 81 1.6 N 24 32 13 17 1018.4 1018.4 0.0
23/08:30am 10.9 6.3 8.1 83 1.4 N 22 32 12 17 1018.2 1018.2 0.0
23/08:00am 10.2 5.4 7.4 83 1.3 N 22 32 12 17 1018.4 1018.4 0.0
23/07:30am 9.8 6.3 7.2 84 1.2 N 15 20 8 11 1018.6 1018.6 0.0
23/07:00am 9.3 6.0 6.6 83 1.3 NNW 13 19 7 10 1018.6 1018.6 0.0
23/06:30am 9.0 5.2 5.7 80 1.5 N 15 19 8 10 1018.7 1018.7 0.0
23/06:00am 8.3 4.1 3.8 73 1.9 NNW 15 20 8 11 1018.9 1018.9 0.0
23/05:30am 8.4 3.1 3.1 69 2.3 W 20 26 11 14 1018.9 1018.9 0.0
23/05:00am 9.3 3.2 2.9 64 2.7 W 24 32 13 17 1018.7 1018.7 0.0
23/04:30am 8.4 4.0 2.8 68 2.4 SW 15 20 8 11 1018.6 1018.6 0.0
23/04:00am 8.7 3.3 2.7 66 2.5 SW 20 24 11 13 1018.5 1018.5 0.0
23/03:30am 8.9 1.9 1.8 61 2.9 W 28 37 15 20 1018.7 1018.7 0.0
23/03:00am 8.8 2.2 1.9 62 2.9 W 26 35 14 19 1018.7 1018.7 0.0
23/02:30am 8.3 2.1 2.1 65 2.6 WNW 24 28 13 15 1018.8 1018.8 0.0
23/02:00am 8.6 2.4 2.2 64 2.7 W 24 32 13 17 1018.9 1018.9 0.0
23/01:30am 8.9 2.0 2.3 63 2.8 W 28 39 15 21 1018.9 1018.9 0.0
23/01:00am 9.0 1.6 2.1 62 2.9 WNW 30 41 16 22 1018.7 1018.7 0.0
23/12:30am 9.1 2.5 2.2 62 2.9 WNW 26 35 14 19 1018.7 1018.7 0.0
23/12:00am 9.2 2.3 2.5 63 2.8 NNW 28 33 15 18 1019.1 1019.1 0.0
 
Date/Time
EST
Temp
°C
App
Temp
°C
Dew
Point
°C
Rel
Hum
%
Delta-T
°C
Wind Press
QNH
hPa
Press
MSL
hPa
Rain since
9am
mm
Dir  Spd
km/h
Gust
km/h
Spd
kts
Gust
kts
22/11:30pm 9.0 3.8 2.3 63 2.8 N 19 26 10 14 1019.1 1019.1 0.0
22/11:00pm 9.1 4.3 2.4 63 2.8 NNW 17 24 9 13 1019.0 1019.0 0.0
22/10:30pm 9.5 4.1 2.4 61 3.0 N 20 28 11 15 1019.0 1019.0 0.0
22/10:00pm 10.0 4.2 2.4 59 3.2 NNW 22 33 12 18 1018.9 1018.9 0.0
22/09:30pm 10.1 3.9 2.2 58 3.3 W 24 30 13 16 1018.7 1018.7 0.0
22/09:00pm 10.5 3.6 2.6 58 3.4 W 28 35 15 19 1018.6 1018.6 0.0
22/08:30pm 10.2 4.1 2.8 60 3.2 W 24 30 13 16 1018.5 1018.5 0.0
22/08:00pm 10.4 4.3 3.0 60 3.2 W 24 32 13 17 1018.5 1018.5 0.0
22/07:30pm 10.4 5.1 3.2 61 3.1 W 20 24 11 13 1018.3 1018.3 0.0
22/07:00pm 11.0 6.6 4.5 64 2.9 N 17 20 9 11 1017.8 1017.8 0.0
22/06:30pm 11.6 6.7 4.1 60 3.4 N 19 24 10 13 1017.7 1017.7 0.0
22/06:00pm 11.9 5.9 3.4 56 3.8 WNW 24 30 13 16 1017.0 1017.0 0.0
22/05:30pm 12.5 7.0 4.0 56 3.8 WNW 22 26 12 14 1016.7 1016.7 0.0
22/05:00pm 13.4 8.0 4.6 55 4.0 W 22 32 12 17 1016.2 1016.2 0.0
22/04:30pm 14.3 8.3 5.1 54 4.3 W 26 37 14 20 1015.5 1015.5 0.0
22/04:00pm 15.4 9.8 5.3 51 4.8 NW 24 37 13 20 1015.2 1015.2 0.0
22/03:30pm 15.8 8.7 5.4 50 5.0 N 32 50 17 27 1014.4 1014.4 0.0
22/03:25pm 16.0 8.8 5.9 51 4.9 NNW 33 50 18 27 1014.4 1014.4 0.0
22/03:22pm 15.9 8.2 5.5 50 5.0 NNW 35 50 19 27 1014.3 1014.3 0.0
22/03:00pm 16.1 8.8 5.4 49 5.1 NW 33 50 18 27 1013.9 1013.9 0.0
22/02:30pm 16.6 9.9 5.6 48 5.3 WNW 30 41 16 22 1013.7 1013.7 0.0
22/02:14pm 16.6 9.0 5.6 48 5.3 WNW 35 52 19 28 1013.5 1013.5 0.0
22/02:00pm 16.5 8.9 5.8 49 5.2 W 35 50 19 27 1013.2 1013.2 0.0
22/01:33pm 16.9 9.7 6.1 49 5.3 NW 33 48 18 26 1013.1 1013.1 0.0
22/01:30pm 16.5 8.9 5.8 49 5.2 NNE 35 48 19 26 1013.1 1013.1 0.0
22/01:29pm 16.5 8.9 5.8 49 5.2 NNE 35 50 19 27 1013.1 1013.1 0.0
22/01:28pm 16.5 8.5 5.8 49 5.2 NNW 37 50 20 27 1013.1 1013.1 0.0
22/01:23pm 16.6 8.7 6.1 50 5.1 NNW 37 50 20 27 1013.1 1013.1 0.0
22/01:21pm 16.3 8.3 5.6 49 5.1 NNW 37 50 20 27 1013.0 1013.0 0.0
22/01:19pm 16.4 8.4 5.7 49 5.2 WNW 37 50 20 27 1013.0 1013.0 0.0
22/01:18pm 16.5 8.5 5.8 49 5.2 W 37 50 20 27 1013.0 1013.0 0.0
22/01:17pm 16.3 8.3 5.9 50 5.0 W 37 50 20 27 1012.9 1012.9 0.0
22/01:16pm 16.4 8.8 5.7 49 5.2 W 35 50 19 27 1012.9 1012.9 0.0
22/01:02pm 16.4 8.8 5.7 49 5.2 SSW 35 50 19 27 1012.8 1012.8 0.0
22/01:00pm 16.3 8.6 5.3 48 5.3 SSW 35 50 19 27 1012.7 1012.7 0.0
22/12:49pm 16.5 8.8 5.5 48 5.3 SW 35 54 19 29 1012.7 1012.7 0.0
22/12:47pm 16.6 9.0 5.6 48 5.3 SW 35 46 19 25 1012.6 1012.6 0.0
22/12:45pm 16.6 8.6 5.6 48 5.3 SW 37 52 20 28 1012.6 1012.6 0.0
22/12:40pm 16.6 8.6 5.6 48 5.3 WSW 37 52 20 28 1012.6 1012.6 0.0
22/12:38pm 16.5 8.1 5.5 48 5.3 WSW 39 52 21 28 1012.6 1012.6 0.0
22/12:30pm 16.5 8.4 5.2 47 5.4 SSW 37 50 20 27 1012.5 1012.5 0.0
22/12:28pm 16.6 8.4 4.9 46 5.6 SSW 37 50 20 27 1012.6 1012.6 0.0
22/12:00pm 16.5 9.4 5.5 48 5.3 SSW 32 50 17 27 1012.6 1012.6 0.0
22/11:56am 16.5 9.2 5.5 48 5.3 SSW 33 50 18 27 1012.5 1012.5 0.0
22/11:55am 16.4 9.0 5.1 47 5.4 SSW 33 50 18 27 1012.5 1012.5 0.0
22/11:54am 16.3 8.9 5.0 47 5.4 SSW 33 50 18 27 1012.5 1012.5 0.0
22/11:30am 16.0 9.1 6.4 53 4.7 SSW 32 43 17 23 1012.7 1012.7 0.0
22/11:00am 15.8 9.3 6.5 54 4.5 SSW 30 46 16 25 1012.6 1012.6 0.0
22/10:38am 15.2 8.1 5.7 53 4.5 SSW 32 50 17 27 1012.6 1012.6 0.0
22/10:30am 14.9 7.3 6.0 55 4.3 S 35 46 19 25 1012.4 1012.4 0.0
22/10:15am 14.9 7.7 5.7 54 4.4 SSW 33 50 18 27 1012.4 1012.4 0.0
22/10:13am 14.8 7.5 5.6 54 4.4 SSW 33 50 18 27 1012.4 1012.4 0.0
22/10:00am 14.7 7.4 5.5 54 4.4 SW 33 46 18 25 1012.3 1012.3 0.0
22/09:57am 14.6 7.0 5.7 55 4.2 SW 35 50 19 27 1012.3 1012.3 0.0
22/09:52am 14.5 6.8 5.3 54 4.3 SW 35 50 19 27 1012.2 1012.2 0.0
22/09:30am 14.1 7.0 5.5 56 4.1 SW 32 48 17 26 1012.1 1012.1 0.0
22/09:27am 14.0 7.3 5.4 56 4.0 SW 30 48 16 26 1012.1 1012.1 0.0
22/09:00am 13.3 7.4 5.9 61 3.5 SSW 26 35 14 19 1011.9 1011.9 0.0
22/08:30am 12.8 6.7 6.4 65 3.0 S 28 41 15 22 1011.4 1011.4 0.0
22/08:00am 12.5 6.5 7.0 69 2.6 S 28 43 15 23 1011.1 1011.1 0.0
22/07:30am 12.4 6.4 6.9 69 2.6 S 28 43 15 23 1010.7 1010.7 0.0
22/07:00am 12.5 6.1 6.8 68 2.7 S 30 43 16 23 1010.1 1010.1 0.0
22/06:30am 12.4 6.9 7.7 73 2.3 S 26 35 14 19 1009.9 1009.9 0.0
22/06:00am 12.8 6.7 8.3 74 2.2 S 30 37 16 20 1009.4 1009.4 0.0
22/05:30am 12.8 7.2 8.9 77 2.0 S 28 37 15 20 1009.4 1009.4 0.0
22/05:00am 13.1 7.6 9.0 76 2.1 S 28 37 15 20 1009.1 1009.1 0.0
22/04:39am 13.2 6.9 9.1 76 2.1 S 32 50 17 27 1008.4 1008.4 0.0
22/04:30am 13.2 6.9 9.1 76 2.1 S 32 44 17 24 1008.4 1008.4 0.0
22/04:00am 13.1 6.2 9.0 76 2.1 S 35 50 19 27 1008.2 1008.2 0.0
22/03:30am 13.0 7.1 8.9 76 2.1 S 30 41 16 22 1008.6 1008.6 0.0
22/03:00am 12.7 7.1 8.6 76 2.0 S 28 39 15 21 1008.7 1008.7 0.0
22/02:30am 13.1 7.6 9.0 76 2.1 S 28 43 15 23 1008.3 1008.3 0.0
22/02:00am 13.0 7.5 9.1 77 2.0 S 28 35 15 19 1008.6 1008.6 0.0
22/01:30am 12.8 7.7 9.1 78 1.9 SE 26 35 14 19 1008.6 1008.6 0.0
22/01:00am 12.8 6.2 8.5 75 2.1 S 33 43 18 23 1008.3 1008.3 0.0
22/12:30am 12.8 5.3 7.9 72 2.4 S 37 46 20 25 1008.3 1008.3 0.0
22/12:09am 13.0 4.3 7.7 70 2.6 S 43 61 23 33 1008.0 1008.0 0.0
22/12:00am 12.9 4.7 8.2 73 2.3 S 41 54 22 29 1008.0 1008.0 0.0
 
Date/Time
EST
Temp
°C
App
Temp
°C
Dew
Point
°C
Rel
Hum
%
Delta-T
°C
Wind Press
QNH
hPa
Press
MSL
hPa
Rain since
9am
mm
Dir  Spd
km/h
Gust
km/h
Spd
kts
Gust
kts
21/11:30pm 12.9 5.5 8.4 74 2.2 S 37 50 20 27 1008.2 1008.2 0.0
21/11:06pm 13.0 5.3 8.5 74 2.2 SSW 39 59 21 32 1007.9 1007.9 0.0
21/11:00pm 13.1 5.4 8.6 74 2.3 SSW 39 50 21 27 1008.1 1008.1 0.0
21/10:52pm 13.1 5.7 8.4 73 2.3 S 37 52 20 28 1008.2 1008.2 0.0
21/10:45pm 13.2 5.8 8.3 72 2.4 S 37 52 20 28 1008.4 1008.4 0.0
21/10:30pm 13.2 6.6 8.5 73 2.3 NNW 33 46 18 25 1008.8 1008.8 0.0
21/10:00pm 13.2 7.5 8.3 72 2.4 NNW 28 43 15 23 1008.9 1008.9 0.0
21/09:30pm 13.3 7.3 8.8 74 2.3 NNW 30 43 16 23 1008.7 1008.7 0.0
21/09:00pm 13.5 7.3 9.4 76 2.1 NNW 32 50 17 27 1009.0 1009.0 0.0
21/08:58pm 13.5 7.3 9.2 75 2.2 NNW 32 50 17 27 1008.9 1008.9 0.0
21/08:30pm 13.4 8.5 9.8 79 1.8 NNW 26 41 14 22 1009.2 1009.2 0.0
21/08:00pm 13.1 9.1 9.2 77 2.0 NNW 20 35 11 19 1009.6 1009.6 0.0
21/07:31pm 13.0 7.0 8.7 75 2.2 SSW 30 48 16 26 1009.6 1009.6 0.0
21/07:30pm 13.1 6.8 8.8 75 2.2 SSW 32 48 17 26 1009.6 1009.6 0.0
21/07:00pm 13.0 6.9 8.3 73 2.3 SSW 30 44 16 24 1009.7 1009.7 0.0
21/06:33pm 13.0 5.9 7.9 71 2.5 SSE 35 52 19 28 1009.5 1009.5 0.0
21/06:32pm 13.0 5.9 7.9 71 2.5 SE 35 52 19 28 1009.6 1009.6 0.0
21/06:31pm 13.0 5.9 7.9 71 2.5 ESE 35 52 19 28 1009.6 1009.6 0.0
21/06:30pm 13.0 6.2 7.9 71 2.5 SSE 33 46 18 25 1009.7 1009.7 0.0
21/06:18pm 12.9 5.3 7.6 70 2.6 S 37 57 20 31 1010.0 1010.0 0.0
21/06:10pm 12.9 4.9 7.4 69 2.7 S 39 57 21 31 1009.6 1009.6 0.0
21/06:09pm 12.9 4.9 7.4 69 2.7 S 39 57 21 31 1009.6 1009.6 0.0
21/06:00pm 12.9 4.5 7.4 69 2.7 SSW 41 63 22 34 1009.3 1009.3 0.0
21/05:44pm 13.0 2.9 7.5 69 2.7 SW 50 74 27 40 1008.6 1008.6 0.0
21/05:42pm 13.0 2.5 7.2 68 2.8 SW 52 74 28 40 1008.5 1008.5 0.0
21/05:30pm 12.9 2.3 7.1 68 2.8 WSW 52 76 28 41 1007.9 1007.9 0.0
21/05:09pm 13.1 3.6 6.9 66 3.0 SW 46 78 25 42 1007.4 1007.4 0.0
21/05:00pm 13.1 5.0 7.1 67 2.9 SW 39 57 21 31 1007.6 1007.6 0.0
21/04:51pm 13.0 5.3 7.2 68 2.8 SW 37 56 20 30 1007.6 1007.6 0.0
21/04:46pm 13.0 4.9 7.2 68 2.8 SW 39 63 21 34 1007.6 1007.6 0.0
21/04:30pm 13.1 3.0 7.5 69 2.7 SW 50 78 27 42 1007.6 1007.6 0.0
21/04:24pm 13.1 3.8 7.5 69 2.7 SW 46 70 25 38 1007.4 1007.4 0.0
21/04:05pm 13.1 4.7 7.3 68 2.8 SSW 41 59 22 32 1007.5 1007.5 0.0
21/04:00pm 13.1 4.3 7.3 68 2.8 SW 43 61 23 33 1007.6 1007.6 0.0
21/03:46pm 13.2 3.0 7.0 66 3.0 SW 50 70 27 38 1007.8 1007.8 0.0
21/03:45pm 13.2 3.0 7.0 66 3.0 SW 50 70 27 38 1007.7 1007.7 0.0
21/03:30pm 13.1 2.8 6.7 65 3.1 SW 50 74 27 40 1007.6 1007.6 0.0
21/03:29pm 13.1 2.8 6.7 65 3.1 SW 50 74 27 40 1007.5 1007.5 0.0
21/03:20pm 13.0 4.9 6.8 66 3.0 SW 39 69 21 37 1007.6 1007.6 0.0
21/03:11pm 12.9 4.8 6.9 67 2.9 WSW 39 57 21 31 1007.9 1007.9 0.0
21/03:09pm 12.9 4.7 6.7 66 3.0 SW 39 57 21 31 1007.9 1007.9 0.0
21/03:01pm 12.8 5.7 6.6 66 3.0 WSW 33 54 18 29 1007.9 1007.9 0.0
21/03:00pm 12.8 5.7 6.6 66 3.0 WSW 33 50 18 27 1007.9 1007.9 0.0
21/02:56pm 12.6 5.2 6.6 67 2.9 WSW 35 54 19 29 1007.9 1007.9 0.0
21/02:54pm 12.6 5.2 6.9 68 2.7 WSW 35 54 19 29 1007.9 1007.9 0.0
21/02:30pm 12.4 4.9 6.5 67 2.8 WSW 35 72 19 39 1008.1 1008.1 0.0
21/02:27pm 12.4 4.9 6.2 66 2.9 WSW 35 72 19 39 1008.1 1008.1 0.0
21/02:00pm 12.4 4.8 6.0 65 3.0 WSW 35 54 19 29 1008.7 1008.7 0.0
21/01:30pm 12.7 4.9 5.1 60 3.5 WSW 35 61 19 33 1008.7 1008.7 0.0
21/01:23pm 12.5 4.4 5.4 62 3.3 W 37 65 20 35 1008.8 1008.8 0.0
21/01:00pm 13.2 6.1 5.6 60 3.6 WNW 32 54 17 29 1009.5 1009.5 0.0
21/12:56pm 13.4 7.0 5.3 58 3.8 WNW 28 54 15 29 1009.6 1009.6 0.0
21/12:55pm 13.5 7.6 5.9 60 3.6 WNW 26 44 14 24 1009.7 1009.7 0.0
21/12:30pm 13.3 4.9 5.7 60 3.6 W 39 57 21 31 1010.1 1010.1 0.0

Other Formats:

Comma delimited format used in spreadsheet applications
http://www.bom.gov.au/fwo/IDT60801/IDT60801.94983.axf

JavaScript Object Notation format (JSON) in row-major order
http://www.bom.gov.au/fwo/IDT60801/IDT60801.94983.json